Time;durP1;ratioP1;P1;durP2;ratioP2;P2;SDS_P1;SDS_P2;PMS_P1;PMS_P2;Temp;Humidity;BMP_temperature;BMP_pressure;BME280_temperature;BME280_humidity;BME280_pressure;Samples;Min_cycle;Max_cycle;Signal;HPM_P1;HPM_P2
2022/03/15 00:00:09;;;;;;;29.88;16.70;;;;;;;5.29;94.01;102694.69;5072126;28;20495;-75
2022/03/15 00:02:35;;;;;;;27.17;14.68;;;;;;;5.39;93.96;102708.91;5071291;28;20048;-72
2022/03/15 00:05:01;;;;;;;27.13;14.50;;;;;;;5.36;93.59;102703.84;5071105;28;20033;-71
2022/03/15 00:07:26;;;;;;;30.38;15.70;;;;;;;5.34;93.99;102702.28;5071085;28;20089;-72
2022/03/15 00:09:52;;;;;;;26.77;15.45;;;;;;;5.24;94.67;102686.28;5070974;28;20025;-72
2022/03/15 00:12:17;;;;;;;26.92;15.38;;;;;;;5.37;94.27;102707.34;5070826;28;20100;-72
2022/03/15 00:14:42;;;;;;;27.10;13.85;;;;;;;5.35;94.16;102701.34;5071035;28;20116;-72
2022/03/15 00:17:08;;;;;;;27.45;14.77;;;;;;;5.35;93.86;102696.03;5070695;28;20060;-72
2022/03/15 00:19:33;;;;;;;26.50;13.52;;;;;;;5.30;93.20;102698.19;5070830;28;20588;-72
2022/03/15 00:21:59;;;;;;;29.23;15.35;;;;;;;5.22;93.05;102704.91;5070602;28;20093;-72
2022/03/15 00:24:25;;;;;;;28.25;15.60;;;;;;;5.18;93.82;102697.31;5070429;28;20029;-72
2022/03/15 00:26:51;;;;;;;29.42;15.27;;;;;;;5.15;94.29;102697.53;5069107;28;20032;-72
2022/03/15 00:29:17;;;;;;;33.53;16.63;;;;;;;5.13;94.54;102688.88;5070655;28;20707;-72
2022/03/15 00:31:44;;;;;;;32.70;15.35;;;;;;;5.12;94.61;102693.31;5070415;28;20067;-72
2022/03/15 00:34:10;;;;;;;24.55;12.85;;;;;;;5.10;94.33;102699.69;5070395;28;20052;-72
2022/03/15 00:36:37;;;;;;;29.92;14.38;;;;;;;5.07;94.47;102697.28;5070589;28;20056;-72
2022/03/15 00:39:03;;;;;;;26.63;14.20;;;;;;;5.07;94.66;102695.47;5070285;28;20040;-71
2022/03/15 00:41:29;;;;;;;26.80;14.88;;;;;;;5.09;94.61;102695.38;5070354;28;20038;-71
2022/03/15 00:43:54;;;;;;;28.10;14.68;;;;;;;5.01;94.37;102683.56;5070352;28;20025;-71
2022/03/15 00:46:19;;;;;;;29.73;15.32;;;;;;;5.05;94.77;102705.31;5069074;28;20039;-71
2022/03/15 00:48:45;;;;;;;26.02;14.20;;;;;;;5.00;95.16;102697.75;5070157;28;20517;-72
2022/03/15 00:51:10;;;;;;;31.80;15.20;;;;;;;4.96;94.72;102700.72;5070115;28;20032;-72
2022/03/15 00:53:35;;;;;;;26.67;14.75;;;;;;;4.98;94.86;102704.94;5068658;28;20976;-71
2022/03/15 00:56:01;;;;;;;27.58;14.02;;;;;;;4.96;94.82;102693.63;5069869;28;20162;-72
2022/03/15 00:58:26;;;;;;;28.95;14.10;;;;;;;4.96;94.74;102693.63;5069960;28;20060;-71
2022/03/15 01:00:52;;;;;;;27.55;14.55;;;;;;;4.95;94.82;102694.59;5069872;28;20502;-72
2022/03/15 01:03:17;;;;;;;24.85;13.15;;;;;;;4.96;94.73;102687.50;5069928;28;20489;-72
2022/03/15 01:05:43;;;;;;;25.45;13.65;;;;;;;4.94;94.93;102684.97;5069752;28;20040;-71
2022/03/15 01:08:08;;;;;;;23.92;11.88;;;;;;;4.92;94.74;102684.22;5069876;28;20448;-72
2022/03/15 01:10:34;;;;;;;26.70;13.23;;;;;;;4.97;94.45;102687.38;5069782;28;20032;-71
2022/03/15 01:13:00;;;;;;;27.02;12.48;;;;;;;4.95;94.94;102680.50;5052257;28;20031;-72
2022/03/15 01:15:25;;;;;;;25.92;13.02;;;;;;;5.03;95.04;102686.94;5069775;28;20093;-72
2022/03/15 01:17:51;;;;;;;26.05;13.93;;;;;;;4.98;94.53;102689.09;5068532;28;20032;-71
2022/03/15 01:20:17;;;;;;;23.50;13.43;;;;;;;4.96;94.70;102690.16;5069892;28;20032;-71
2022/03/15 01:22:42;;;;;;;29.08;14.77;;;;;;;4.94;95.06;102682.31;5069509;28;20582;-72
2022/03/15 01:25:09;;;;;;;27.33;14.27;;;;;;;4.97;94.61;102684.72;5069705;28;20097;-71
2022/03/15 01:27:34;;;;;;;26.65;13.25;;;;;;;4.95;94.92;102684.03;5069021;28;20028;-72
2022/03/15 01:30:00;;;;;;;26.58;13.73;;;;;;;4.96;94.94;102690.16;5069764;28;20471;-72
2022/03/15 01:32:25;;;;;;;26.75;13.30;;;;;;;4.96;95.24;102683.06;5069445;28;20047;-71
2022/03/15 01:34:51;;;;;;;26.80;13.73;;;;;;;4.91;95.03;102663.22;5069629;28;20438;-71
2022/03/15 01:37:16;;;;;;;25.65;13.55;;;;;;;4.89;94.64;102663.31;5068303;28;20372;-71
2022/03/15 01:39:42;;;;;;;28.60;14.95;;;;;;;4.90;94.85;102650.94;5069544;28;20032;-71
2022/03/15 01:42:07;;;;;;;29.52;13.40;;;;;;;4.94;94.62;102658.53;5069614;28;20468;-72
2022/03/15 01:44:33;;;;;;;31.15;16.45;;;;;;;4.92;95.08;102660.44;5069416;28;20080;-71
2022/03/15 01:46:59;;;;;;;29.70;14.65;;;;;;;4.91;95.03;102664.03;5069570;28;20040;-71
2022/03/15 01:49:25;;;;;;;29.77;15.35;;;;;;;4.90;94.91;102666.78;5067773;28;20049;-71
2022/03/15 01:51:52;;;;;;;27.30;13.57;;;;;;;4.84;94.63;102655.72;5069397;28;20060;-71
2022/03/15 01:54:20;;;;;;;26.67;13.85;;;;;;;4.86;94.98;102654.78;5069467;28;20078;-71
2022/03/15 01:56:46;;;;;;;35.58;15.60;;;;;;;4.84;94.62;102655.72;5069459;28;20514;-71
2022/03/15 01:59:13;;;;;;;28.58;14.95;;;;;;;4.86;95.06;102657.41;5069661;28;20029;-71
2022/03/15 02:01:41;;;;;;;29.23;15.77;;;;;;;4.78;95.20;102627.09;5069063;28;20037;-71
2022/03/15 02:04:07;;;;;;;32.97;14.73;;;;;;;4.89;94.96;102636.88;5069268;28;20032;-71
2022/03/15 02:06:38;;;;;;;29.42;15.07;;;;;;;4.88;95.03;102639.66;5069216;28;20040;-71
2022/03/15 02:09:14;;;;;;;26.53;14.10;;;;;;;4.90;95.15;102643.00;5068032;28;20039;-71
2022/03/15 02:11:40;;;;;;;28.70;14.10;;;;;;;4.88;94.57;102647.59;5069224;28;20270;-71
2022/03/15 02:14:06;;;;;;;25.90;14.32;;;;;;;4.88;95.13;102648.41;5069237;28;20583;-72
2022/03/15 02:16:32;;;;;;;26.27;14.00;;;;;;;4.93;95.14;102645.44;5069188;28;20090;-71
2022/03/15 02:18:59;;;;;;;26.70;13.23;;;;;;;4.97;94.76;102650.34;5069326;28;20442;-71
2022/03/15 02:21:26;;;;;;;25.15;12.98;;;;;;;5.02;94.85;102642.91;5069153;28;20024;-71
2022/03/15 02:23:52;;;;;;;25.92;12.15;;;;;;;5.01;94.31;102635.13;5069102;28;20039;-71
2022/03/15 02:26:17;;;;;;;27.75;13.35;;;;;;;4.96;93.93;102629.34;5067860;28;20032;-71
2022/03/15 02:28:43;;;;;;;24.83;12.93;;;;;;;4.94;94.21;102639.19;5068954;28;20380;-71
2022/03/15 02:31:09;;;;;;;24.92;12.32;;;;;;;4.94;94.04;102629.44;5067831;28;20585;-71
2022/03/15 02:33:34;;;;;;;27.70;13.73;;;;;;;4.91;94.31;102620.91;5069053;28;20062;-72
2022/03/15 02:36:00;;;;;;;27.45;12.77;;;;;;;4.89;93.67;102628.94;5068979;28;20228;-72
2022/03/15 02:38:26;;;;;;;24.88;12.32;;;;;;;4.84;94.03;102613.41;5069106;28;20046;-71
2022/03/15 02:40:51;;;;;;;23.55;11.00;;;;;;;4.82;94.00;102617.13;5071355;28;20021;-71
2022/03/15 02:43:16;;;;;;;21.20;11.35;;;;;;;4.80;94.13;102608.50;5072644;28;20070;-72
2022/03/15 02:45:42;;;;;;;27.73;13.88;;;;;;;4.82;94.47;102611.84;5072437;28;20067;-71
2022/03/15 02:48:07;;;;;;;24.52;13.25;;;;;;;4.81;94.36;102605.72;5072197;28;20107;-72
2022/03/15 02:50:33;;;;;;;24.95;12.95;;;;;;;4.82;94.55;102601.28;5072548;28;20028;-71
2022/03/15 02:52:58;;;;;;;21.92;11.50;;;;;;;4.83;94.72;102608.25;5071169;28;20028;-71
2022/03/15 02:55:24;;;;;;;23.42;11.52;;;;;;;4.86;94.74;102605.38;5072255;28;20598;-72
2022/03/15 02:57:49;;;;;;;25.40;13.13;;;;;;;4.88;94.79;102605.28;5072376;28;20124;-71
2022/03/15 03:00:17;;;;;;;29.23;13.73;;;;;;;4.84;94.65;102581.69;5072256;28;20361;-71
2022/03/15 03:02:43;;;;;;;28.15;12.43;;;;;;;4.89;94.31;102594.56;5070944;28;20032;-72
2022/03/15 03:05:08;;;;;;;24.15;12.65;;;;;;;4.92;94.16;102596.16;5072249;28;20074;-72
2022/03/15 03:07:35;;;;;;;24.67;12.55;;;;;;;4.94;94.28;102592.44;5072380;28;20038;-71
2022/03/15 03:10:01;;;;;;;25.83;14.73;;;;;;;4.92;94.00;102594.34;5072032;28;20107;-71
2022/03/15 03:12:28;;;;;;;24.08;12.27;;;;;;;4.88;93.92;102586.78;5072078;28;20034;-72
2022/03/15 03:14:53;;;;;;;20.52;11.40;;;;;;;4.84;93.88;102576.41;5071948;28;20024;-71
2022/03/15 03:17:19;;;;;;;27.90;12.90;;;;;;;4.79;94.15;102573.31;5072103;28;20032;-71
2022/03/15 03:19:44;;;;;;;24.38;11.73;;;;;;;4.75;94.19;102569.19;5072015;28;20485;-71
2022/03/15 03:22:10;;;;;;;23.58;10.93;;;;;;;4.76;94.41;102572.66;5070569;28;20056;-72
2022/03/15 03:24:35;;;;;;;20.52;12.60;;;;;;;4.78;94.48;102570.75;5071709;28;20043;-72
2022/03/15 03:27:01;;;;;;;22.95;12.68;;;;;;;4.78;94.79;102565.47;5071816;28;20499;-72
2022/03/15 03:29:28;;;;;;;22.30;11.73;;;;;;;4.81;94.55;102568.72;5071881;28;20040;-71
2022/03/15 03:31:55;;;;;;;22.80;11.90;;;;;;;4.83;94.53;102577.38;5071796;28;21062;-71
2022/03/15 03:34:21;;;;;;;23.83;12.80;;;;;;;4.77;94.36;102567.28;5071798;28;20037;-71
2022/03/15 03:36:46;;;;;;;25.88;11.98;;;;;;;4.81;94.63;102566.06;5071662;28;20051;-71
2022/03/15 03:39:11;;;;;;;23.92;12.18;;;;;;;4.84;94.49;102568.47;5071673;28;20532;-72
2022/03/15 03:41:37;;;;;;;24.58;13.13;;;;;;;4.85;94.64;102566.72;5071489;28;20455;-71
2022/03/15 03:44:03;;;;;;;25.10;11.68;;;;;;;4.87;94.48;102566.56;5071485;28;20029;-71
2022/03/15 03:46:31;;;;;;;26.02;13.68;;;;;;;4.87;94.67;102563.94;5071336;28;20025;-72
2022/03/15 03:48:57;;;;;;;25.83;12.43;;;;;;;4.81;94.58;102560.78;5071252;28;20056;-72
2022/03/15 03:51:22;;;;;;;22.85;11.63;;;;;;;4.82;94.40;102565.13;5070996;28;20032;-72
2022/03/15 03:53:48;;;;;;;22.65;12.25;;;;;;;4.87;94.73;102566.56;5071402;28;20024;-72
2022/03/15 03:56:13;;;;;;;21.98;12.93;;;;;;;4.89;94.40;102564.66;5069872;28;20115;-71
2022/03/15 03:58:39;;;;;;;24.70;12.95;;;;;;;4.89;94.20;102557.56;5069912;28;20181;-71
2022/03/15 04:01:04;;;;;;;23.10;13.43;;;;;;;4.90;94.04;102555.75;5071211;28;20032;-71
2022/03/15 04:03:31;;;;;;;26.65;12.70;;;;;;;4.92;94.25;102561.78;5071564;28;20553;-72
2022/03/15 04:05:57;;;;;;;25.55;13.88;;;;;;;4.91;94.21;102563.59;5069788;28;20185;-72
2022/03/15 04:08:24;;;;;;;24.63;13.10;;;;;;;4.92;94.55;102565.25;5071117;28;20119;-72
2022/03/15 04:10:50;;;;;;;22.45;11.77;;;;;;;4.89;93.96;102565.50;5071082;28;20365;-72
2022/03/15 04:13:18;;;;;;;25.05;12.98;;;;;;;4.84;94.14;102563.19;5070850;28;20460;-71
2022/03/15 04:15:46;;;;;;;25.80;12.93;;;;;;;4.86;94.19;102565.72;5070881;28;20383;-71
2022/03/15 04:18:12;;;;;;;23.17;12.85;;;;;;;4.87;93.92;102564.75;5070643;28;20468;-71
2022/03/15 04:20:38;;;;;;;24.10;12.05;;;;;;;4.88;94.31;102569.09;5070785;28;20032;-71
2022/03/15 04:23:03;;;;;;;26.23;12.32;;;;;;;4.90;93.95;102567.19;5070600;28;20036;-71
2022/03/15 04:25:30;;;;;;;31.52;13.68;;;;;;;4.90;94.35;102566.34;5070510;28;20111;-72
2022/03/15 04:28:00;;;;;;;23.63;12.18;;;;;;;4.85;94.16;102561.41;5069366;28;20186;-71
2022/03/15 04:30:26;;;;;;;27.42;13.90;;;;;;;4.79;93.83;102549.50;5070695;28;20032;-71
2022/03/15 04:32:51;;;;;;;26.50;13.63;;;;;;;4.89;93.99;102562.84;5070552;28;20024;-71
2022/03/15 04:35:17;;;;;;;21.50;11.80;;;;;;;4.91;94.07;102568.88;5070629;28;20032;-71
2022/03/15 04:37:42;;;;;;;22.00;13.20;;;;;;;4.90;93.93;102561.91;5070418;28;20083;-71
2022/03/15 04:40:09;;;;;;;24.50;12.23;;;;;;;4.87;93.82;102558.63;5070475;28;20039;-71
2022/03/15 04:42:34;;;;;;;22.48;12.25;;;;;;;4.83;93.85;102552.75;5070316;28;20028;-71
2022/03/15 04:45:00;;;;;;;23.50;11.88;;;;;;;4.88;93.87;102555.06;5070220;28;20503;-71
2022/03/15 04:47:25;;;;;;;21.65;11.63;;;;;;;4.87;94.14;102553.34;5070316;28;20391;-71
2022/03/15 04:49:51;;;;;;;23.25;11.98;;;;;;;4.84;94.28;102543.84;5069964;28;20114;-71
2022/03/15 04:52:17;;;;;;;20.30;11.55;;;;;;;4.81;93.95;102537.00;5070169;28;20044;-71
2022/03/15 04:54:43;;;;;;;20.58;12.48;;;;;;;4.86;94.02;102549.88;5070203;28;20422;-71
2022/03/15 04:57:08;;;;;;;21.23;11.57;;;;;;;4.85;94.18;102545.56;5069938;28;20024;-71
2022/03/15 04:59:34;;;;;;;22.75;12.93;;;;;;;4.83;93.99;102542.19;5070130;28;20032;-71
2022/03/15 05:01:59;;;;;;;28.85;14.57;;;;;;;4.79;94.26;102544.22;5069690;28;20649;-72
2022/03/15 05:04:24;;;;;;;24.25;12.93;;;;;;;4.80;94.31;102553.00;5069797;28;20080;-71
2022/03/15 05:06:50;;;;;;;20.48;11.80;;;;;;;4.79;94.37;102546.88;5069963;28;20043;-71
2022/03/15 05:09:15;;;;;;;20.88;11.77;;;;;;;4.80;94.42;102537.97;5069955;28;20120;-72
2022/03/15 05:11:47;;;;;;;21.42;11.73;;;;;;;4.77;94.47;102540.84;5069705;28;20502;-72
2022/03/15 05:14:13;;;;;;;22.95;12.77;;;;;;;4.79;94.42;102538.94;5069768;28;20032;-71
2022/03/15 05:16:39;;;;;;;24.30;12.65;;;;;;;4.72;93.93;102527.16;5069744;28;20043;-71
2022/03/15 05:19:05;;;;;;;24.25;12.95;;;;;;;4.75;94.27;102536.63;5069978;28;20020;-72
2022/03/15 05:21:31;;;;;;;22.17;11.65;;;;;;;4.74;94.12;102540.22;5069698;28;20051;-71
2022/03/15 05:23:56;;;;;;;22.00;12.65;;;;;;;4.71;94.59;102536.00;5069798;28;20035;-71
2022/03/15 05:26:22;;;;;;;28.20;12.45;;;;;;;4.69;94.66;102532.66;5069874;28;20028;-71
2022/03/15 05:28:49;;;;;;;21.90;12.15;;;;;;;4.74;94.12;102540.22;5069558;28;20054;-71
2022/03/15 05:31:26;;;;;;;22.35;11.50;;;;;;;4.77;93.98;102532.91;5069768;28;20116;-71
2022/03/15 05:33:52;;;;;;;21.27;11.48;;;;;;;4.79;93.99;102528.38;5069602;28;20019;-71
2022/03/15 05:36:18;;;;;;;24.98;12.10;;;;;;;4.77;93.60;102532.09;5069670;28;20032;-72
2022/03/15 05:38:44;;;;;;;22.63;11.85;;;;;;;4.83;93.55;102536.91;5069522;28;20400;-71
2022/03/15 05:41:10;;;;;;;19.60;13.02;;;;;;;4.82;93.66;102525.47;5069556;28;20032;-72
2022/03/15 05:43:36;;;;;;;20.70;10.40;;;;;;;4.81;93.31;102518.50;5069376;28;20086;-72
2022/03/15 05:46:02;;;;;;;22.52;11.00;;;;;;;4.81;93.55;102523.78;5069545;28;20488;-71
2022/03/15 05:48:28;;;;;;;21.65;11.65;;;;;;;4.83;93.51;102519.22;5069251;28;20157;-71
2022/03/15 05:50:53;;;;;;;22.95;12.18;;;;;;;4.84;93.50;102520.91;5069499;28;20060;-72
2022/03/15 05:53:18;;;;;;;21.98;12.63;;;;;;;4.86;93.36;102519.97;5069255;28;20107;-72
2022/03/15 05:55:44;;;;;;;22.52;13.45;;;;;;;4.84;93.41;102512.97;5069338;28;20025;-71
2022/03/15 05:58:09;;;;;;;22.60;11.68;;;;;;;4.82;93.01;102506.13;5068190;28;20040;-71
2022/03/15 06:00:35;;;;;;;27.23;13.23;;;;;;;4.87;92.80;102525.09;5069383;28;20029;-71
2022/03/15 06:03:00;;;;;;;20.83;10.63;;;;;;;4.90;92.83;102516.97;5069628;28;20036;-71
2022/03/15 06:05:27;;;;;;;23.90;12.07;;;;;;;4.91;93.12;102505.41;5069605;28;20480;-71
2022/03/15 06:07:53;;;;;;;20.38;10.32;;;;;;;4.92;92.70;102511.53;5069159;28;20582;-72
2022/03/15 06:10:23;;;;;;;23.00;11.35;;;;;;;4.93;93.14;102513.25;5069072;28;20029;-71
2022/03/15 06:12:49;;;;;;;20.85;10.90;;;;;;;4.93;93.10;102521.19;5069182;28;20025;-71
2022/03/15 06:15:14;;;;;;;19.65;9.77;;;;;;;4.90;92.83;102513.47;5072312;28;20028;-71
2022/03/15 06:17:44;;;;;;;20.30;10.85;;;;;;;4.93;93.23;102519.38;5073191;28;20057;-72
2022/03/15 06:20:13;;;;;;;25.55;10.98;;;;;;;4.92;92.87;102507.09;5072971;28;20039;-71
2022/03/15 06:22:38;;;;;;;19.30;12.10;;;;;;;4.90;92.81;102500.25;5072919;28;20028;-72
2022/03/15 06:25:04;;;;;;;20.73;11.60;;;;;;;4.88;92.43;102496.91;5054583;28;20395;-71
2022/03/15 06:27:29;;;;;;;20.58;10.55;;;;;;;4.92;92.69;102504.44;5071498;28;20442;-71
2022/03/15 06:29:55;;;;;;;19.20;10.70;;;;;;;4.89;92.92;102490.63;5072553;28;20059;-71
2022/03/15 06:32:21;;;;;;;21.38;11.73;;;;;;;4.96;92.50;102497.97;5072789;28;20044;-71
2022/03/15 06:34:46;;;;;;;21.90;10.25;;;;;;;4.98;92.45;102501.34;5072589;28;20024;-71
2022/03/15 06:37:12;;;;;;;19.10;10.98;;;;;;;5.01;92.73;102511.69;5072575;28;20025;-71
2022/03/15 06:39:37;;;;;;;19.50;9.73;;;;;;;4.98;92.96;102493.41;5072654;28;20407;-71
2022/03/15 06:42:11;;;;;;;21.13;10.23;;;;;;;5.07;92.19;102501.59;5072651;28;20035;-71
2022/03/15 06:44:42;;;;;;;20.17;10.07;;;;;;;5.08;92.24;102490.88;5072474;28;20052;-71
2022/03/15 06:47:08;;;;;;;18.70;11.35;;;;;;;5.10;91.97;102486.31;5071233;28;20119;-71
2022/03/15 06:49:33;;;;;;;21.67;9.25;;;;;;;5.00;92.13;102466.84;5072068;28;20553;-72
2022/03/15 06:51:58;;;;;;;22.13;10.18;;;;;;;5.17;91.65;102491.97;5072327;28;20081;-72
2022/03/15 06:54:25;;;;;;;20.30;10.70;;;;;;;5.20;91.62;102489.91;5072090;28;20025;-72
2022/03/15 06:56:50;;;;;;;22.85;9.80;;;;;;;5.22;91.66;102492.47;5072277;28;20056;-71
2022/03/15 06:59:15;;;;;;;17.88;9.93;;;;;;;5.25;91.73;102479.81;5072191;28;20048;-71
2022/03/15 07:01:41;;;;;;;21.48;10.48;;;;;;;5.28;91.59;102490.16;5072064;28;20560;-71
2022/03/15 07:04:07;;;;;;;25.58;10.23;;;;;;;5.33;91.73;102487.16;5071958;28;20462;-72
2022/03/15 07:06:32;;;;;;;18.40;10.10;;;;;;;5.38;91.20;102479.69;5072082;28;20119;-71
2022/03/15 07:08:57;;;;;;;19.17;9.82;;;;;;;5.42;91.42;102477.63;5072003;28;20028;-71
2022/03/15 07:11:23;;;;;;;20.08;9.60;;;;;;;5.46;91.64;102484.38;5071976;28;20836;-71
2022/03/15 07:13:48;;;;;;;17.60;9.68;;;;;;;5.49;91.27;102486.75;5072047;28;20103;-71
2022/03/15 07:16:15;;;;;;;17.88;10.32;;;;;;;5.55;91.99;102488.91;5071673;28;20383;-71
2022/03/15 07:18:41;;;;;;;18.20;9.25;;;;;;;5.57;91.10;102494.94;5071887;28;20037;-72
2022/03/15 07:21:06;;;;;;;19.00;8.70;;;;;;;5.60;91.07;102492.03;5071726;28;20380;-72
2022/03/15 07:23:31;;;;;;;20.33;9.13;;;;;;;5.63;90.96;102486.50;5071817;28;20392;-72
2022/03/15 07:25:57;;;;;;;18.52;8.10;;;;;;;5.65;90.81;102478.44;5071412;28;20040;-71
2022/03/15 07:28:22;;;;;;;17.45;9.40;;;;;;;5.71;90.06;102473.50;5070251;28;20024;-72
2022/03/15 07:30:48;;;;;;;20.48;10.15;;;;;;;5.73;89.36;102468.06;5071635;28;20100;-71
2022/03/15 07:33:13;;;;;;;14.68;8.15;;;;;;;5.76;89.08;102464.31;5071868;28;20036;-71
2022/03/15 07:35:38;;;;;;;14.48;7.93;;;;;;;5.78;88.71;102460.59;5071636;28;20021;-71
2022/03/15 07:38:04;;;;;;;15.98;8.77;;;;;;;5.82;88.57;102458.53;5071556;28;20037;-71
2022/03/15 07:40:31;;;;;;;18.52;8.73;;;;;;;5.84;88.70;102453.94;5074692;28;20058;-71
2022/03/15 07:42:57;;;;;;;17.25;8.15;;;;;;;5.89;88.44;102454.41;5074743;28;20447;-71
2022/03/15 07:45:23;;;;;;;21.23;8.95;;;;;;;5.95;88.40;102456.59;5070550;28;20119;-73
2022/03/15 07:47:49;;;;;;;15.15;8.13;;;;;;;5.96;88.06;102445.03;5069772;28;20060;-71
2022/03/15 07:50:15;;;;;;;14.15;7.93;;;;;;;6.01;88.12;102444.66;5070963;28;20121;-71
2022/03/15 07:52:41;;;;;;;15.85;7.97;;;;;;;6.11;88.71;102449.06;5071213;28;20436;-71
2022/03/15 07:55:07;;;;;;;16.98;7.88;;;;;;;6.18;88.64;102461.78;5073862;28;20036;-72
2022/03/15 07:57:32;;;;;;;14.48;7.32;;;;;;;6.25;88.84;102455.84;5073790;28;20036;-72
2022/03/15 07:59:57;;;;;;;18.67;8.18;;;;;;;6.29;88.33;102451.16;5071441;28;20621;-73
2022/03/15 08:02:23;;;;;;;22.50;7.75;;;;;;;6.36;87.07;102452.28;5052767;28;20109;-72
2022/03/15 08:04:48;;;;;;;17.52;7.10;;;;;;;6.38;87.54;102447.69;5071023;28;20047;-74
2022/03/15 08:07:13;;;;;;;15.48;7.75;;;;;;;6.35;86.91;102438.19;5069767;28;20112;-71
2022/03/15 08:09:39;;;;;;;21.77;8.52;;;;;;;6.45;86.93;102450.69;5070551;28;20040;-71
2022/03/15 08:12:05;;;;;;;16.58;7.85;;;;;;;6.54;87.28;102449.88;5070899;28;20027;-72
2022/03/15 08:14:31;;;;;;;16.10;7.40;;;;;;;6.54;86.85;102445.41;5070977;28;20037;-73
2022/03/15 08:16:56;;;;;;;18.17;7.85;;;;;;;6.60;86.63;102446.72;5052899;28;20086;-73
2022/03/15 08:19:22;;;;;;;17.10;8.27;;;;;;;6.65;86.74;102447.16;5070681;28;20036;-73
2022/03/15 08:21:47;;;;;;;16.83;7.95;;;;;;;6.70;86.73;102444.94;5070751;28;20028;-72
2022/03/15 08:24:14;;;;;;;16.65;7.70;;;;;;;6.73;86.32;102438.53;5070659;28;20071;-73
2022/03/15 08:26:40;;;;;;;12.00;7.60;;;;;;;6.78;86.37;102439.81;5070329;28;20067;-73
2022/03/15 08:29:06;;;;;;;16.88;9.07;;;;;;;6.87;86.79;102442.69;5070705;28;20079;-73
2022/03/15 08:31:31;;;;;;;15.32;7.30;;;;;;;6.91;86.59;102436.94;5070693;28;20024;-72
2022/03/15 08:33:57;;;;;;;17.25;6.75;;;;;;;6.95;86.68;102433.06;5070464;28;20383;-72
2022/03/15 08:36:22;;;;;;;17.08;7.45;;;;;;;6.98;86.45;102439.94;5069099;28;20553;-73
2022/03/15 08:38:48;;;;;;;17.73;6.63;;;;;;;7.01;85.88;102435.19;5070286;28;20123;-72
2022/03/15 08:41:13;;;;;;;12.70;6.85;;;;;;;7.06;85.75;102431.28;5070347;28;20048;-72
2022/03/15 08:43:39;;;;;;;14.80;6.65;;;;;;;7.08;85.58;102427.53;5070235;28;20094;-74
2022/03/15 08:46:05;;;;;;;18.88;7.88;;;;;;;7.11;85.63;102415.81;5069021;28;20039;-72
2022/03/15 08:48:31;;;;;;;17.95;7.55;;;;;;;7.19;85.46;102426.59;5070309;28;20029;-72
2022/03/15 08:50:59;;;;;;;16.63;6.72;;;;;;;7.24;85.88;102425.19;5070027;28;20025;-72
2022/03/15 08:53:25;;;;;;;18.50;7.18;;;;;;;7.31;84.96;102424.66;5070221;28;20027;-72
2022/03/15 08:55:50;;;;;;;14.57;6.65;;;;;;;7.38;85.15;102423.97;5069978;28;20119;-72
2022/03/15 08:58:16;;;;;;;17.58;5.70;;;;;;;7.46;84.63;102412.66;5070090;28;20050;-72
2022/03/15 09:00:41;;;;;;;17.65;6.30;;;;;;;7.52;84.75;102406.81;5068657;28;20047;-72
2022/03/15 09:03:06;;;;;;;16.13;6.15;;;;;;;7.61;83.82;102413.94;5069920;28;20870;-72
2022/03/15 09:05:32;;;;;;;13.30;6.00;;;;;;;7.60;83.20;102398.16;5068562;28;20083;-72
2022/03/15 09:07:58;;;;;;;13.27;6.28;;;;;;;7.72;82.82;102406.81;5070093;28;20110;-72
2022/03/15 09:10:24;;;;;;;12.57;6.40;;;;;;;7.75;82.68;102398.56;5069919;28;20017;-72
2022/03/15 09:12:51;;;;;;;12.95;6.47;;;;;;;7.87;81.47;102400.13;5069767;28;20495;-73
2022/03/15 09:15:17;;;;;;;13.68;6.60;;;;;;;7.94;82.59;102400.38;5065157;28;20020;-74
2022/03/15 09:17:42;;;;;;;18.55;8.18;;;;;;;8.01;82.13;102399.69;5062941;28;20029;-73
2022/03/15 09:20:09;;;;;;;15.23;6.55;;;;;;;8.05;81.65;102393.09;5064300;28;20460;-72
2022/03/15 09:22:35;;;;;;;12.38;5.78;;;;;;;8.21;81.83;102397.00;5065657;28;20058;-71
2022/03/15 09:25:01;;;;;;;14.02;6.40;;;;;;;8.21;80.80;102383.72;5067080;28;20037;-72
2022/03/15 09:27:27;;;;;;;14.88;7.00;;;;;;;8.30;80.98;102399.63;5051558;28;20040;-72
2022/03/15 09:29:54;;;;;;;12.20;6.15;;;;;;;8.41;81.32;102397.81;5070736;28;20170;-72
2022/03/15 09:32:20;;;;;;;14.43;6.10;;;;;;;8.46;80.66;102399.09;5072916;28;20024;-72
2022/03/15 09:34:45;;;;;;;14.98;7.60;;;;;;;8.52;79.54;102398.50;5072397;28;20031;-72
2022/03/15 09:37:11;;;;;;;13.90;6.30;;;;;;;8.56;79.06;102391.88;5069603;28;20064;-72
2022/03/15 09:39:37;;;;;;;21.25;8.77;;;;;;;8.57;78.18;102395.41;5069531;28;20380;-72
2022/03/15 09:42:06;;;;;;;13.18;6.75;;;;;;;8.61;78.54;102399.44;5068125;28;20032;-72
2022/03/15 09:44:35;;;;;;;13.77;5.78;;;;;;;8.66;79.21;102396.34;5069296;28;20033;-72
2022/03/15 09:47:03;;;;;;;12.45;6.45;;;;;;;8.76;79.76;102397.97;5068059;28;20028;-72
2022/03/15 09:49:29;;;;;;;20.88;6.75;;;;;;;8.77;77.30;102396.97;5073324;28;20076;-72
2022/03/15 09:51:56;;;;;;;15.45;6.93;;;;;;;8.85;79.20;102395.41;5076031;28;20067;-72
2022/03/15 09:54:22;;;;;;;14.98;7.30;;;;;;;8.89;77.16;102391.50;5075866;28;20028;-72
2022/03/15 09:56:49;;;;;;;14.75;6.80;;;;;;;8.93;76.71;102385.75;5075837;28;20074;-72
2022/03/15 09:59:17;;;;;;;19.17;8.35;;;;;;;9.04;76.23;102397.13;5075858;28;20044;-72
2022/03/15 10:01:44;;;;;;;14.82;5.85;;;;;;;9.07;76.81;102386.22;5075858;28;20020;-72
2022/03/15 10:04:10;;;;;;;13.82;6.85;;;;;;;9.07;75.31;102394.22;5075742;28;20547;-72
2022/03/15 10:06:37;;;;;;;12.55;6.38;;;;;;;9.14;76.43;102393.47;5075937;28;20099;-72
2022/03/15 10:09:04;;;;;;;10.90;6.30;;;;;;;9.24;76.98;102395.22;5075901;28;20040;-72
2022/03/15 10:11:29;;;;;;;15.95;7.38;;;;;;;9.29;75.28;102387.63;5075741;28;20052;-72
2022/03/15 10:13:55;;;;;;;13.70;7.30;;;;;;;9.28;75.82;102386.78;5075802;28;20387;-72
2022/03/15 10:16:22;;;;;;;16.17;6.50;;;;;;;9.29;74.97;102372.47;5075790;28;20108;-72
2022/03/15 10:18:52;;;;;;;12.13;6.82;;;;;;;9.30;75.56;102374.16;5075546;28;20024;-72
2022/03/15 10:21:17;;;;;;;15.70;7.00;;;;;;;9.38;74.07;102376.09;5076023;28;20033;-72
2022/03/15 10:23:42;;;;;;;13.93;6.97;;;;;;;9.36;74.26;102386.03;5075598;28;20036;-72
2022/03/15 10:26:08;;;;;;;16.88;6.90;;;;;;;9.40;74.30;102384.72;5075557;28;20045;-72
2022/03/15 10:28:36;;;;;;;15.80;6.85;;;;;;;9.41;74.30;102381.09;5075962;28;20365;-72
2022/03/15 10:31:05;;;;;;;17.10;7.03;;;;;;;9.41;74.12;102370.44;5074371;28;20033;-72
2022/03/15 10:33:33;;;;;;;14.55;6.00;;;;;;;9.44;73.97;102364.81;5075623;28;20021;-71
2022/03/15 10:35:59;;;;;;;11.70;5.63;;;;;;;9.44;73.59;102368.31;5075621;28;20479;-71
2022/03/15 10:38:24;;;;;;;16.60;7.68;;;;;;;9.46;73.42;102368.16;5075658;28;20123;-71
2022/03/15 10:40:55;;;;;;;14.43;7.43;;;;;;;9.41;72.93;102357.97;5075715;28;20124;-71
2022/03/15 10:43:23;;;;;;;13.85;6.65;;;;;;;9.36;72.81;102359.41;5075205;28;20070;-71
2022/03/15 10:45:57;;;;;;;47.08;25.77;;;;;;;9.28;73.32;102359.34;5075592;28;20032;-72
2022/03/15 10:48:32;;;;;;;13.68;6.03;;;;;;;9.30;73.76;102347.53;5075583;28;20020;-71
2022/03/15 10:51:12;;;;;;;12.20;7.03;;;;;;;9.34;74.51;102348.91;5074354;28;20048;-71
2022/03/15 10:53:41;;;;;;;15.63;6.97;;;;;;;9.33;73.07;102341.91;5075514;28;20028;-71
2022/03/15 10:56:14;;;;;;;19.77;10.73;;;;;;;9.35;73.12;102342.59;5075011;28;20116;-71
2022/03/15 10:59:11;;;;;;;12.15;6.75;;;;;;;9.40;73.73;102340.28;5075456;28;20118;-71
2022/03/15 11:01:41;;;;;;;15.98;7.95;;;;;;;9.50;73.48;102336.72;5071232;28;20068;-72
2022/03/15 11:04:11;;;;;;;13.85;6.90;;;;;;;9.59;73.88;102333.16;5072050;28;20025;-71
2022/03/15 11:06:40;;;;;;;19.77;13.43;;;;;;;9.68;73.12;102326.06;5072219;28;20087;-71
2022/03/15 11:09:25;;;;;;;26.45;14.02;;;;;;;9.81;73.42;102318.50;5072403;28;20444;-71
2022/03/15 11:12:02;;;;;;;13.68;7.30;;;;;;;9.82;73.12;102305.03;5072196;28;20468;-71
2022/03/15 11:14:47;;;;;;;16.55;8.00;;;;;;;10.00;73.45;102317.47;5072119;28;20013;-71